sensor_id;sensor_type;location;lat;lon;timestamp;P1;durP1;ratioP1;P2;durP2;ratioP2
27402;SDS011;14862;49.494;8.530;2024-01-30T00:00:31;45.80;;;23.60;;
27402;SDS011;14862;49.494;8.530;2024-01-30T00:02:56;36.03;;;18.83;;
27402;SDS011;14862;49.494;8.530;2024-01-30T00:05:22;34.22;;;18.77;;
27402;SDS011;14862;49.494;8.530;2024-01-30T00:07:47;30.00;;;16.30;;
27402;SDS011;14862;49.494;8.530;2024-01-30T00:10:12;23.85;;;15.48;;
27402;SDS011;14862;49.494;8.530;2024-01-30T00:12:38;29.00;;;16.58;;
27402;SDS011;14862;49.494;8.530;2024-01-30T00:15:03;26.60;;;15.60;;
27402;SDS011;14862;49.494;8.530;2024-01-30T00:17:29;25.63;;;16.08;;
27402;SDS011;14862;49.494;8.530;2024-01-30T00:19:55;26.10;;;15.30;;
27402;SDS011;14862;49.494;8.530;2024-01-30T00:22:20;25.03;;;14.93;;
27402;SDS011;14862;49.494;8.530;2024-01-30T00:24:45;23.27;;;15.60;;
27402;SDS011;14862;49.494;8.530;2024-01-30T00:27:10;24.23;;;14.65;;
27402;SDS011;14862;49.494;8.530;2024-01-30T00:29:36;25.60;;;15.53;;
27402;SDS011;14862;49.494;8.530;2024-01-30T00:32:01;27.98;;;16.42;;
27402;SDS011;14862;49.494;8.530;2024-01-30T00:34:26;27.38;;;15.75;;
27402;SDS011;14862;49.494;8.530;2024-01-30T00:36:51;27.03;;;15.70;;
27402;SDS011;14862;49.494;8.530;2024-01-30T00:39:16;22.25;;;14.50;;
27402;SDS011;14862;49.494;8.530;2024-01-30T00:41:44;26.92;;;15.13;;
27402;SDS011;14862;49.494;8.530;2024-01-30T00:44:09;22.50;;;13.93;;
27402;SDS011;14862;49.494;8.530;2024-01-30T00:46:34;26.25;;;14.68;;
27402;SDS011;14862;49.494;8.530;2024-01-30T00:49:00;25.00;;;14.97;;
27402;SDS011;14862;49.494;8.530;2024-01-30T00:51:25;25.30;;;14.70;;
27402;SDS011;14862;49.494;8.530;2024-01-30T00:53:50;22.25;;;13.52;;
27402;SDS011;14862;49.494;8.530;2024-01-30T00:56:15;20.25;;;13.77;;
27402;SDS011;14862;49.494;8.530;2024-01-30T00:58:43;25.27;;;14.20;;
27402;SDS011;14862;49.494;8.530;2024-01-30T01:01:08;20.63;;;14.00;;
27402;SDS011;14862;49.494;8.530;2024-01-30T01:03:33;26.73;;;16.08;;
27402;SDS011;14862;49.494;8.530;2024-01-30T01:05:58;23.88;;;14.63;;
27402;SDS011;14862;49.494;8.530;2024-01-30T01:08:24;24.83;;;15.20;;
27402;SDS011;14862;49.494;8.530;2024-01-30T01:10:50;25.05;;;15.30;;
27402;SDS011;14862;49.494;8.530;2024-01-30T01:13:15;23.10;;;14.20;;
27402;SDS011;14862;49.494;8.530;2024-01-30T01:15:40;23.08;;;14.80;;
27402;SDS011;14862;49.494;8.530;2024-01-30T01:18:05;23.20;;;13.73;;
27402;SDS011;14862;49.494;8.530;2024-01-30T01:20:31;26.57;;;13.60;;
27402;SDS011;14862;49.494;8.530;2024-01-30T01:22:56;23.33;;;12.38;;
27402;SDS011;14862;49.494;8.530;2024-01-30T01:25:21;20.23;;;12.50;;
27402;SDS011;14862;49.494;8.530;2024-01-30T01:27:46;20.85;;;13.23;;
27402;SDS011;14862;49.494;8.530;2024-01-30T01:30:16;22.55;;;13.10;;
27402;SDS011;14862;49.494;8.530;2024-01-30T01:32:46;22.58;;;14.20;;
27402;SDS011;14862;49.494;8.530;2024-01-30T01:35:15;20.40;;;13.63;;
27402;SDS011;14862;49.494;8.530;2024-01-30T01:37:41;16.83;;;12.20;;
27402;SDS011;14862;49.494;8.530;2024-01-30T01:40:06;19.00;;;11.63;;
27402;SDS011;14862;49.494;8.530;2024-01-30T01:42:31;19.63;;;12.07;;
27402;SDS011;14862;49.494;8.530;2024-01-30T01:44:57;21.95;;;11.80;;
27402;SDS011;14862;49.494;8.530;2024-01-30T01:47:22;16.25;;;10.00;;
27402;SDS011;14862;49.494;8.530;2024-01-30T01:49:47;18.50;;;11.70;;
27402;SDS011;14862;49.494;8.530;2024-01-30T01:52:13;17.23;;;11.48;;
27402;SDS011;14862;49.494;8.530;2024-01-30T01:54:38;19.15;;;11.45;;
27402;SDS011;14862;49.494;8.530;2024-01-30T01:57:03;17.40;;;11.35;;
27402;SDS011;14862;49.494;8.530;2024-01-30T01:59:29;15.13;;;10.68;;
27402;SDS011;14862;49.494;8.530;2024-01-30T02:01:54;17.58;;;10.38;;
27402;SDS011;14862;49.494;8.530;2024-01-30T02:04:20;16.20;;;10.75;;
27402;SDS011;14862;49.494;8.530;2024-01-30T02:06:45;17.65;;;10.70;;
27402;SDS011;14862;49.494;8.530;2024-01-30T02:09:11;15.32;;;10.88;;
27402;SDS011;14862;49.494;8.530;2024-01-30T02:11:36;18.33;;;10.67;;
27402;SDS011;14862;49.494;8.530;2024-01-30T02:14:04;16.00;;;10.50;;
27402;SDS011;14862;49.494;8.530;2024-01-30T02:16:30;18.05;;;10.48;;
27402;SDS011;14862;49.494;8.530;2024-01-30T02:18:55;17.40;;;10.25;;
27402;SDS011;14862;49.494;8.530;2024-01-30T02:21:20;13.18;;;9.52;;
27402;SDS011;14862;49.494;8.530;2024-01-30T02:23:48;16.58;;;10.05;;
27402;SDS011;14862;49.494;8.530;2024-01-30T02:26:14;17.45;;;10.43;;
27402;SDS011;14862;49.494;8.530;2024-01-30T02:28:39;14.82;;;10.40;;
27402;SDS011;14862;49.494;8.530;2024-01-30T02:31:05;13.43;;;9.85;;
27402;SDS011;14862;49.494;8.530;2024-01-30T02:33:30;14.95;;;9.85;;
27402;SDS011;14862;49.494;8.530;2024-01-30T02:35:55;16.83;;;10.48;;
27402;SDS011;14862;49.494;8.530;2024-01-30T02:38:21;15.95;;;10.07;;
27402;SDS011;14862;49.494;8.530;2024-01-30T02:40:46;14.82;;;9.40;;
27402;SDS011;14862;49.494;8.530;2024-01-30T02:43:11;13.43;;;9.32;;
27402;SDS011;14862;49.494;8.530;2024-01-30T02:45:37;15.63;;;10.10;;
27402;SDS011;14862;49.494;8.530;2024-01-30T02:48:02;13.50;;;9.90;;
27402;SDS011;14862;49.494;8.530;2024-01-30T02:50:27;12.75;;;9.13;;
27402;SDS011;14862;49.494;8.530;2024-01-30T02:52:52;15.68;;;9.80;;
27402;SDS011;14862;49.494;8.530;2024-01-30T02:55:17;18.05;;;10.07;;
27402;SDS011;14862;49.494;8.530;2024-01-30T02:57:43;18.63;;;10.90;;
27402;SDS011;14862;49.494;8.530;2024-01-30T03:00:08;18.92;;;10.52;;
27402;SDS011;14862;49.494;8.530;2024-01-30T03:02:34;14.63;;;9.35;;
27402;SDS011;14862;49.494;8.530;2024-01-30T03:05:00;17.92;;;11.10;;
27402;SDS011;14862;49.494;8.530;2024-01-30T03:07:25;15.15;;;10.30;;
27402;SDS011;14862;49.494;8.530;2024-01-30T03:09:50;15.93;;;10.05;;
27402;SDS011;14862;49.494;8.530;2024-01-30T03:12:15;16.80;;;9.95;;
27402;SDS011;14862;49.494;8.530;2024-01-30T03:14:41;14.27;;;10.73;;
27402;SDS011;14862;49.494;8.530;2024-01-30T03:17:06;14.13;;;9.82;;
27402;SDS011;14862;49.494;8.530;2024-01-30T03:19:31;14.07;;;9.90;;
27402;SDS011;14862;49.494;8.530;2024-01-30T03:21:56;14.40;;;9.38;;
27402;SDS011;14862;49.494;8.530;2024-01-30T03:24:22;15.90;;;10.53;;
27402;SDS011;14862;49.494;8.530;2024-01-30T03:26:47;15.10;;;10.25;;
27402;SDS011;14862;49.494;8.530;2024-01-30T03:29:12;16.60;;;10.68;;
27402;SDS011;14862;49.494;8.530;2024-01-30T03:31:38;17.08;;;9.88;;
27402;SDS011;14862;49.494;8.530;2024-01-30T03:34:03;13.50;;;9.63;;
27402;SDS011;14862;49.494;8.530;2024-01-30T03:36:29;18.40;;;11.68;;
27402;SDS011;14862;49.494;8.530;2024-01-30T03:38:54;17.10;;;10.45;;
27402;SDS011;14862;49.494;8.530;2024-01-30T03:41:19;18.77;;;10.20;;
27402;SDS011;14862;49.494;8.530;2024-01-30T03:43:44;17.35;;;11.40;;
27402;SDS011;14862;49.494;8.530;2024-01-30T03:46:11;15.90;;;9.68;;
27402;SDS011;14862;49.494;8.530;2024-01-30T03:48:36;17.45;;;10.80;;
27402;SDS011;14862;49.494;8.530;2024-01-30T03:51:02;14.48;;;10.00;;
27402;SDS011;14862;49.494;8.530;2024-01-30T03:53:27;15.82;;;10.73;;
27402;SDS011;14862;49.494;8.530;2024-01-30T03:55:52;16.55;;;9.90;;
27402;SDS011;14862;49.494;8.530;2024-01-30T03:58:17;18.30;;;10.23;;
27402;SDS011;14862;49.494;8.530;2024-01-30T04:00:43;15.80;;;10.02;;
27402;SDS011;14862;49.494;8.530;2024-01-30T04:03:08;16.25;;;9.88;;
27402;SDS011;14862;49.494;8.530;2024-01-30T04:05:33;19.40;;;11.38;;
27402;SDS011;14862;49.494;8.530;2024-01-30T04:07:58;15.13;;;9.82;;
27402;SDS011;14862;49.494;8.530;2024-01-30T04:10:24;11.90;;;9.43;;
27402;SDS011;14862;49.494;8.530;2024-01-30T04:12:50;15.35;;;9.45;;
27402;SDS011;14862;49.494;8.530;2024-01-30T04:15:15;16.70;;;10.57;;
27402;SDS011;14862;49.494;8.530;2024-01-30T04:17:41;15.02;;;10.05;;
27402;SDS011;14862;49.494;8.530;2024-01-30T04:20:06;16.63;;;10.70;;
27402;SDS011;14862;49.494;8.530;2024-01-30T04:22:31;14.32;;;9.80;;
27402;SDS011;14862;49.494;8.530;2024-01-30T04:24:57;19.13;;;10.38;;
27402;SDS011;14862;49.494;8.530;2024-01-30T04:27:22;16.98;;;9.63;;
27402;SDS011;14862;49.494;8.530;2024-01-30T04:29:47;20.75;;;11.38;;
27402;SDS011;14862;49.494;8.530;2024-01-30T04:32:12;14.43;;;10.47;;
27402;SDS011;14862;49.494;8.530;2024-01-30T04:34:37;16.20;;;9.65;;
27402;SDS011;14862;49.494;8.530;2024-01-30T04:37:03;14.32;;;9.65;;
27402;SDS011;14862;49.494;8.530;2024-01-30T04:39:28;16.73;;;10.15;;
27402;SDS011;14862;49.494;8.530;2024-01-30T04:41:53;15.90;;;10.57;;
27402;SDS011;14862;49.494;8.530;2024-01-30T04:44:18;15.90;;;10.32;;
27402;SDS011;14862;49.494;8.530;2024-01-30T04:46:44;17.90;;;10.43;;
27402;SDS011;14862;49.494;8.530;2024-01-30T04:49:09;15.38;;;9.63;;
27402;SDS011;14862;49.494;8.530;2024-01-30T04:51:34;19.25;;;10.80;;
27402;SDS011;14862;49.494;8.530;2024-01-30T04:54:00;15.18;;;10.75;;
27402;SDS011;14862;49.494;8.530;2024-01-30T04:56:25;14.40;;;10.80;;
27402;SDS011;14862;49.494;8.530;2024-01-30T04:58:50;17.67;;;10.57;;
27402;SDS011;14862;49.494;8.530;2024-01-30T05:01:15;19.90;;;12.70;;
27402;SDS011;14862;49.494;8.530;2024-01-30T05:03:41;15.35;;;10.20;;
27402;SDS011;14862;49.494;8.530;2024-01-30T05:06:06;15.60;;;11.10;;
27402;SDS011;14862;49.494;8.530;2024-01-30T05:08:31;16.92;;;10.88;;
27402;SDS011;14862;49.494;8.530;2024-01-30T05:10:59;15.45;;;10.82;;
27402;SDS011;14862;49.494;8.530;2024-01-30T05:13:25;16.88;;;9.95;;
27402;SDS011;14862;49.494;8.530;2024-01-30T05:15:50;15.87;;;10.30;;
27402;SDS011;14862;49.494;8.530;2024-01-30T05:18:15;16.17;;;10.48;;
27402;SDS011;14862;49.494;8.530;2024-01-30T05:20:40;18.05;;;11.82;;
27402;SDS011;14862;49.494;8.530;2024-01-30T05:23:05;16.27;;;10.90;;
27402;SDS011;14862;49.494;8.530;2024-01-30T05:25:31;16.43;;;11.67;;
27402;SDS011;14862;49.494;8.530;2024-01-30T05:27:56;19.93;;;12.27;;
27402;SDS011;14862;49.494;8.530;2024-01-30T05:30:21;19.05;;;12.25;;
27402;SDS011;14862;49.494;8.530;2024-01-30T05:32:46;20.63;;;13.77;;
27402;SDS011;14862;49.494;8.530;2024-01-30T05:35:12;20.55;;;12.93;;
27402;SDS011;14862;49.494;8.530;2024-01-30T05:37:37;22.00;;;12.60;;
27402;SDS011;14862;49.494;8.530;2024-01-30T05:40:02;18.80;;;12.02;;
27402;SDS011;14862;49.494;8.530;2024-01-30T05:42:27;20.40;;;12.88;;
27402;SDS011;14862;49.494;8.530;2024-01-30T05:44:53;24.93;;;13.00;;
27402;SDS011;14862;49.494;8.530;2024-01-30T05:47:18;21.27;;;12.45;;
27402;SDS011;14862;49.494;8.530;2024-01-30T05:49:43;18.77;;;12.27;;
27402;SDS011;14862;49.494;8.530;2024-01-30T05:52:08;20.27;;;12.47;;
27402;SDS011;14862;49.494;8.530;2024-01-30T05:54:34;21.92;;;13.30;;
27402;SDS011;14862;49.494;8.530;2024-01-30T05:56:59;21.10;;;12.25;;
27402;SDS011;14862;49.494;8.530;2024-01-30T05:59:25;19.98;;;13.23;;
27402;SDS011;14862;49.494;8.530;2024-01-30T06:01:50;20.23;;;12.43;;
27402;SDS011;14862;49.494;8.530;2024-01-30T06:04:15;20.60;;;12.82;;
27402;SDS011;14862;49.494;8.530;2024-01-30T06:06:41;20.02;;;13.55;;
27402;SDS011;14862;49.494;8.530;2024-01-30T06:09:06;19.42;;;12.60;;
27402;SDS011;14862;49.494;8.530;2024-01-30T06:11:34;18.15;;;11.65;;
27402;SDS011;14862;49.494;8.530;2024-01-30T06:13:59;22.42;;;13.10;;
27402;SDS011;14862;49.494;8.530;2024-01-30T06:16:24;19.40;;;12.75;;
27402;SDS011;14862;49.494;8.530;2024-01-30T06:18:49;21.00;;;13.38;;
27402;SDS011;14862;49.494;8.530;2024-01-30T06:21:15;20.80;;;13.05;;
27402;SDS011;14862;49.494;8.530;2024-01-30T06:23:40;20.60;;;13.05;;
27402;SDS011;14862;49.494;8.530;2024-01-30T06:26:06;21.48;;;12.88;;
27402;SDS011;14862;49.494;8.530;2024-01-30T06:28:31;24.38;;;14.50;;
27402;SDS011;14862;49.494;8.530;2024-01-30T06:30:56;21.43;;;13.57;;
27402;SDS011;14862;49.494;8.530;2024-01-30T06:33:22;22.10;;;14.00;;
27402;SDS011;14862;49.494;8.530;2024-01-30T06:35:47;21.38;;;13.73;;
27402;SDS011;14862;49.494;8.530;2024-01-30T06:38:12;22.65;;;13.75;;
27402;SDS011;14862;49.494;8.530;2024-01-30T06:40:38;21.73;;;13.25;;
27402;SDS011;14862;49.494;8.530;2024-01-30T06:43:04;24.88;;;13.90;;
27402;SDS011;14862;49.494;8.530;2024-01-30T06:45:29;23.02;;;14.77;;
27402;SDS011;14862;49.494;8.530;2024-01-30T06:47:54;22.77;;;14.27;;
27402;SDS011;14862;49.494;8.530;2024-01-30T06:50:20;20.10;;;13.75;;
27402;SDS011;14862;49.494;8.530;2024-01-30T06:52:45;21.70;;;13.97;;
27402;SDS011;14862;49.494;8.530;2024-01-30T06:55:10;22.57;;;13.90;;
27402;SDS011;14862;49.494;8.530;2024-01-30T06:57:36;22.67;;;13.73;;
27402;SDS011;14862;49.494;8.530;2024-01-30T07:00:01;21.13;;;12.82;;
27402;SDS011;14862;49.494;8.530;2024-01-30T07:02:26;19.48;;;12.40;;
27402;SDS011;14862;49.494;8.530;2024-01-30T07:04:51;20.40;;;12.37;;
27402;SDS011;14862;49.494;8.530;2024-01-30T07:07:17;21.80;;;12.38;;
27402;SDS011;14862;49.494;8.530;2024-01-30T07:09:42;19.40;;;13.25;;
27402;SDS011;14862;49.494;8.530;2024-01-30T07:12:07;22.42;;;12.95;;
27402;SDS011;14862;49.494;8.530;2024-01-30T07:14:33;23.38;;;13.35;;
27402;SDS011;14862;49.494;8.530;2024-01-30T07:16:58;18.63;;;12.38;;
27402;SDS011;14862;49.494;8.530;2024-01-30T07:19:23;19.17;;;11.90;;
27402;SDS011;14862;49.494;8.530;2024-01-30T07:21:48;19.43;;;11.87;;
27402;SDS011;14862;49.494;8.530;2024-01-30T07:24:14;17.25;;;11.55;;
27402;SDS011;14862;49.494;8.530;2024-01-30T07:26:39;19.88;;;13.02;;
27402;SDS011;14862;49.494;8.530;2024-01-30T07:29:04;19.45;;;11.18;;
27402;SDS011;14862;49.494;8.530;2024-01-30T07:31:29;21.33;;;12.20;;
27402;SDS011;14862;49.494;8.530;2024-01-30T07:33:54;19.50;;;12.07;;
27402;SDS011;14862;49.494;8.530;2024-01-30T07:36:20;19.67;;;12.30;;
27402;SDS011;14862;49.494;8.530;2024-01-30T07:38:45;19.08;;;11.65;;
27402;SDS011;14862;49.494;8.530;2024-01-30T07:41:10;18.05;;;11.00;;
27402;SDS011;14862;49.494;8.530;2024-01-30T07:43:38;19.13;;;11.05;;
27402;SDS011;14862;49.494;8.530;2024-01-30T07:46:03;17.58;;;11.45;;
27402;SDS011;14862;49.494;8.530;2024-01-30T07:48:29;19.60;;;11.10;;
27402;SDS011;14862;49.494;8.530;2024-01-30T07:50:54;15.38;;;9.52;;
27402;SDS011;14862;49.494;8.530;2024-01-30T07:53:20;16.08;;;10.23;;
27402;SDS011;14862;49.494;8.530;2024-01-30T07:55:45;15.63;;;10.50;;
27402;SDS011;14862;49.494;8.530;2024-01-30T07:58:11;19.17;;;11.35;;
27402;SDS011;14862;49.494;8.530;2024-01-30T08:00:37;16.80;;;10.20;;
27402;SDS011;14862;49.494;8.530;2024-01-30T08:03:02;14.60;;;10.18;;
27402;SDS011;14862;49.494;8.530;2024-01-30T08:05:27;14.88;;;9.80;;
27402;SDS011;14862;49.494;8.530;2024-01-30T08:07:53;14.80;;;9.90;;
27402;SDS011;14862;49.494;8.530;2024-01-30T08:10:18;15.00;;;10.15;;
27402;SDS011;14862;49.494;8.530;2024-01-30T08:12:44;14.18;;;10.13;;
27402;SDS011;14862;49.494;8.530;2024-01-30T08:15:09;14.40;;;9.98;;
27402;SDS011;14862;49.494;8.530;2024-01-30T08:17:34;15.13;;;9.98;;
27402;SDS011;14862;49.494;8.530;2024-01-30T08:19:59;15.40;;;10.17;;
27402;SDS011;14862;49.494;8.530;2024-01-30T08:22:25;13.95;;;9.60;;
27402;SDS011;14862;49.494;8.530;2024-01-30T08:24:50;13.02;;;9.27;;
27402;SDS011;14862;49.494;8.530;2024-01-30T08:27:15;13.87;;;10.10;;
27402;SDS011;14862;49.494;8.530;2024-01-30T08:29:40;15.38;;;9.50;;
27402;SDS011;14862;49.494;8.530;2024-01-30T08:32:06;13.82;;;8.77;;
27402;SDS011;14862;49.494;8.530;2024-01-30T08:34:31;11.82;;;8.45;;
27402;SDS011;14862;49.494;8.530;2024-01-30T08:36:57;12.88;;;8.57;;
27402;SDS011;14862;49.494;8.530;2024-01-30T08:39:22;11.48;;;8.40;;
27402;SDS011;14862;49.494;8.530;2024-01-30T08:41:47;18.17;;;9.63;;
27402;SDS011;14862;49.494;8.530;2024-01-30T08:44:12;12.40;;;9.25;;
27402;SDS011;14862;49.494;8.530;2024-01-30T08:46:37;13.43;;;9.30;;
27402;SDS011;14862;49.494;8.530;2024-01-30T08:49:03;14.23;;;9.37;;
27402;SDS011;14862;49.494;8.530;2024-01-30T08:51:31;15.75;;;11.05;;
27402;SDS011;14862;49.494;8.530;2024-01-30T08:53:56;14.50;;;9.10;;
27402;SDS011;14862;49.494;8.530;2024-01-30T08:56:21;18.00;;;10.32;;
27402;SDS011;14862;49.494;8.530;2024-01-30T08:58:47;14.52;;;9.85;;
27402;SDS011;14862;49.494;8.530;2024-01-30T09:01:12;14.97;;;9.80;;
27402;SDS011;14862;49.494;8.530;2024-01-30T09:03:37;15.18;;;9.93;;
27402;SDS011;14862;49.494;8.530;2024-01-30T09:06:08;15.40;;;9.95;;
27402;SDS011;14862;49.494;8.530;2024-01-30T09:08:33;14.15;;;10.18;;
27402;SDS011;14862;49.494;8.530;2024-01-30T09:10:59;15.00;;;10.35;;
27402;SDS011;14862;49.494;8.530;2024-01-30T09:13:25;17.38;;;9.85;;
27402;SDS011;14862;49.494;8.530;2024-01-30T09:15:50;15.80;;;11.37;;
27402;SDS011;14862;49.494;8.530;2024-01-30T09:18:15;16.15;;;10.02;;
27402;SDS011;14862;49.494;8.530;2024-01-30T09:20:40;17.73;;;10.30;;
27402;SDS011;14862;49.494;8.530;2024-01-30T09:23:06;12.38;;;9.55;;
27402;SDS011;14862;49.494;8.530;2024-01-30T09:25:31;17.40;;;9.68;;
27402;SDS011;14862;49.494;8.530;2024-01-30T09:27:56;13.50;;;9.37;;
27402;SDS011;14862;49.494;8.530;2024-01-30T09:30:21;16.13;;;10.80;;
27402;SDS011;14862;49.494;8.530;2024-01-30T09:32:47;16.27;;;10.30;;
27402;SDS011;14862;49.494;8.530;2024-01-30T09:35:12;13.77;;;9.90;;
27402;SDS011;14862;49.494;8.530;2024-01-30T09:37:37;14.93;;;10.00;;
27402;SDS011;14862;49.494;8.530;2024-01-30T09:40:02;14.67;;;10.20;;
27402;SDS011;14862;49.494;8.530;2024-01-30T09:42:34;16.40;;;10.50;;
27402;SDS011;14862;49.494;8.530;2024-01-30T09:45:01;18.70;;;10.00;;
27402;SDS011;14862;49.494;8.530;2024-01-30T09:47:26;16.25;;;10.13;;
27402;SDS011;14862;49.494;8.530;2024-01-30T09:49:51;13.27;;;9.00;;
27402;SDS011;14862;49.494;8.530;2024-01-30T09:52:17;13.48;;;9.50;;
27402;SDS011;14862;49.494;8.530;2024-01-30T09:54:43;15.85;;;10.27;;
27402;SDS011;14862;49.494;8.530;2024-01-30T09:57:09;12.55;;;8.93;;
27402;SDS011;14862;49.494;8.530;2024-01-30T09:59:34;15.35;;;10.07;;
27402;SDS011;14862;49.494;8.530;2024-01-30T10:01:59;16.15;;;10.70;;
27402;SDS011;14862;49.494;8.530;2024-01-30T10:04:25;17.30;;;9.98;;
27402;SDS011;14862;49.494;8.530;2024-01-30T10:06:53;15.60;;;10.57;;
27402;SDS011;14862;49.494;8.530;2024-01-30T10:09:18;16.38;;;9.98;;
27402;SDS011;14862;49.494;8.530;2024-01-30T10:11:44;19.00;;;9.77;;
27402;SDS011;14862;49.494;8.530;2024-01-30T10:14:09;16.10;;;9.83;;
27402;SDS011;14862;49.494;8.530;2024-01-30T10:16:34;15.77;;;9.77;;
27402;SDS011;14862;49.494;8.530;2024-01-30T10:19:00;16.30;;;10.48;;
27402;SDS011;14862;49.494;8.530;2024-01-30T10:21:25;16.10;;;9.55;;
27402;SDS011;14862;49.494;8.530;2024-01-30T10:23:50;15.30;;;9.95;;
27402;SDS011;14862;49.494;8.530;2024-01-30T10:26:18;13.73;;;9.88;;
27402;SDS011;14862;49.494;8.530;2024-01-30T10:28:43;15.80;;;9.73;;
27402;SDS011;14862;49.494;8.530;2024-01-30T10:31:08;15.20;;;9.67;;
27402;SDS011;14862;49.494;8.530;2024-01-30T10:33:34;18.67;;;10.13;;
27402;SDS011;14862;49.494;8.530;2024-01-30T10:36:02;14.65;;;10.25;;
27402;SDS011;14862;49.494;8.530;2024-01-30T10:38:28;18.60;;;10.35;;
27402;SDS011;14862;49.494;8.530;2024-01-30T10:40:55;14.25;;;9.75;;
27402;SDS011;14862;49.494;8.530;2024-01-30T10:43:21;15.13;;;10.20;;
27402;SDS011;14862;49.494;8.530;2024-01-30T10:45:47;21.15;;;11.57;;
27402;SDS011;14862;49.494;8.530;2024-01-30T10:48:14;14.23;;;10.40;;
27402;SDS011;14862;49.494;8.530;2024-01-30T10:50:41;22.48;;;11.93;;
27402;SDS011;14862;49.494;8.530;2024-01-30T10:53:07;20.80;;;10.95;;
27402;SDS011;14862;49.494;8.530;2024-01-30T10:55:33;17.90;;;11.68;;
27402;SDS011;14862;49.494;8.530;2024-01-30T10:57:59;17.05;;;10.77;;
27402;SDS011;14862;49.494;8.530;2024-01-30T11:00:25;19.13;;;11.63;;
27402;SDS011;14862;49.494;8.530;2024-01-30T11:02:51;19.17;;;11.40;;
27402;SDS011;14862;49.494;8.530;2024-01-30T11:05:23;19.00;;;9.93;;
27402;SDS011;14862;49.494;8.530;2024-01-30T11:07:48;19.27;;;10.43;;
27402;SDS011;14862;49.494;8.530;2024-01-30T11:10:13;17.20;;;11.20;;
27402;SDS011;14862;49.494;8.530;2024-01-30T11:12:40;14.82;;;9.65;;
27402;SDS011;14862;49.494;8.530;2024-01-30T11:17:44;21.55;;;11.68;;
27402;SDS011;14862;49.494;8.530;2024-01-30T11:20:10;22.23;;;13.13;;
27402;SDS011;14862;49.494;8.530;2024-01-30T11:22:36;20.45;;;11.25;;
27402;SDS011;14862;49.494;8.530;2024-01-30T11:25:02;24.88;;;12.18;;
27402;SDS011;14862;49.494;8.530;2024-01-30T11:27:28;19.17;;;11.48;;
27402;SDS011;14862;49.494;8.530;2024-01-30T11:29:53;22.85;;;12.98;;
27402;SDS011;14862;49.494;8.530;2024-01-30T11:32:22;21.25;;;10.80;;
27402;SDS011;14862;49.494;8.530;2024-01-30T11:34:48;20.65;;;11.23;;
27402;SDS011;14862;49.494;8.530;2024-01-30T11:37:14;14.45;;;10.15;;
27402;SDS011;14862;49.494;8.530;2024-01-30T11:39:40;17.40;;;9.68;;
27402;SDS011;14862;49.494;8.530;2024-01-30T11:42:07;15.27;;;9.75;;
27402;SDS011;14862;49.494;8.530;2024-01-30T11:44:33;15.25;;;9.35;;
27402;SDS011;14862;49.494;8.530;2024-01-30T11:46:59;13.48;;;9.85;;
27402;SDS011;14862;49.494;8.530;2024-01-30T11:49:24;18.15;;;10.50;;
27402;SDS011;14862;49.494;8.530;2024-01-30T11:51:49;17.20;;;9.85;;
27402;SDS011;14862;49.494;8.530;2024-01-30T11:54:15;16.58;;;10.15;;
27402;SDS011;14862;49.494;8.530;2024-01-30T11:56:41;22.80;;;11.32;;
27402;SDS011;14862;49.494;8.530;2024-01-30T11:59:06;17.63;;;10.88;;
27402;SDS011;14862;49.494;8.530;2024-01-30T12:01:31;17.52;;;10.73;;
27402;SDS011;14862;49.494;8.530;2024-01-30T12:03:58;13.73;;;9.07;;
27402;SDS011;14862;49.494;8.530;2024-01-30T12:06:23;16.75;;;9.98;;
27402;SDS011;14862;49.494;8.530;2024-01-30T12:08:58;15.55;;;10.23;;
27402;SDS011;14862;49.494;8.530;2024-01-30T12:11:24;15.48;;;10.02;;
27402;SDS011;14862;49.494;8.530;2024-01-30T12:13:49;15.23;;;9.32;;
27402;SDS011;14862;49.494;8.530;2024-01-30T12:16:15;13.73;;;10.20;;
27402;SDS011;14862;49.494;8.530;2024-01-30T12:18:41;17.65;;;10.45;;
27402;SDS011;14862;49.494;8.530;2024-01-30T12:21:06;16.88;;;9.63;;
27402;SDS011;14862;49.494;8.530;2024-01-30T12:23:32;16.13;;;9.98;;
27402;SDS011;14862;49.494;8.530;2024-01-30T12:25:58;15.77;;;10.07;;
27402;SDS011;14862;49.494;8.530;2024-01-30T12:28:24;15.50;;;10.13;;
27402;SDS011;14862;49.494;8.530;2024-01-30T12:30:49;18.23;;;9.98;;
27402;SDS011;14862;49.494;8.530;2024-01-30T12:33:17;20.40;;;11.88;;
27402;SDS011;14862;49.494;8.530;2024-01-30T12:35:46;15.18;;;10.00;;
27402;SDS011;14862;49.494;8.530;2024-01-30T12:38:12;14.75;;;10.07;;
27402;SDS011;14862;49.494;8.530;2024-01-30T12:40:38;15.77;;;10.13;;
27402;SDS011;14862;49.494;8.530;2024-01-30T12:43:03;16.65;;;10.27;;
27402;SDS011;14862;49.494;8.530;2024-01-30T12:45:28;14.70;;;9.93;;
27402;SDS011;14862;49.494;8.530;2024-01-30T12:47:55;11.85;;;9.02;;
27402;SDS011;14862;49.494;8.530;2024-01-30T12:50:20;13.15;;;9.00;;
27402;SDS011;14862;49.494;8.530;2024-01-30T12:52:45;15.85;;;9.43;;
27402;SDS011;14862;49.494;8.530;2024-01-30T12:55:10;13.48;;;9.93;;
27402;SDS011;14862;49.494;8.530;2024-01-30T12:57:36;12.20;;;8.95;;
27402;SDS011;14862;49.494;8.530;2024-01-30T13:00:01;14.73;;;9.57;;
27402;SDS011;14862;49.494;8.530;2024-01-30T13:02:27;16.17;;;10.20;;
27402;SDS011;14862;49.494;8.530;2024-01-30T13:04:59;14.80;;;10.23;;
27402;SDS011;14862;49.494;8.530;2024-01-30T13:07:24;12.98;;;9.70;;
27402;SDS011;14862;49.494;8.530;2024-01-30T13:09:50;14.10;;;10.32;;
27402;SDS011;14862;49.494;8.530;2024-01-30T13:12:15;15.53;;;9.67;;
27402;SDS011;14862;49.494;8.530;2024-01-30T13:14:40;13.15;;;9.73;;
27402;SDS011;14862;49.494;8.530;2024-01-30T13:17:05;13.87;;;9.97;;
27402;SDS011;14862;49.494;8.530;2024-01-30T13:19:31;18.77;;;10.30;;
27402;SDS011;14862;49.494;8.530;2024-01-30T13:21:56;14.60;;;9.95;;
27402;SDS011;14862;49.494;8.530;2024-01-30T13:24:21;15.65;;;9.55;;
27402;SDS011;14862;49.494;8.530;2024-01-30T13:26:46;13.18;;;9.90;;
27402;SDS011;14862;49.494;8.530;2024-01-30T13:29:12;15.75;;;9.73;;
27402;SDS011;14862;49.494;8.530;2024-01-30T13:31:37;15.50;;;9.88;;
27402;SDS011;14862;49.494;8.530;2024-01-30T13:34:04;16.63;;;10.90;;
27402;SDS011;14862;49.494;8.530;2024-01-30T13:36:30;15.95;;;9.98;;
27402;SDS011;14862;49.494;8.530;2024-01-30T13:38:55;15.52;;;9.70;;
27402;SDS011;14862;49.494;8.530;2024-01-30T13:41:21;15.88;;;10.50;;
27402;SDS011;14862;49.494;8.530;2024-01-30T13:43:47;16.27;;;9.90;;
27402;SDS011;14862;49.494;8.530;2024-01-30T13:46:13;13.93;;;9.87;;
27402;SDS011;14862;49.494;8.530;2024-01-30T13:48:38;15.43;;;9.90;;
27402;SDS011;14862;49.494;8.530;2024-01-30T13:51:03;21.92;;;10.48;;
27402;SDS011;14862;49.494;8.530;2024-01-30T13:53:29;15.15;;;9.45;;
27402;SDS011;14862;49.494;8.530;2024-01-30T13:55:54;14.50;;;10.60;;
27402;SDS011;14862;49.494;8.530;2024-01-30T13:58:20;19.48;;;10.10;;
27402;SDS011;14862;49.494;8.530;2024-01-30T14:00:45;13.38;;;9.18;;
27402;SDS011;14862;49.494;8.530;2024-01-30T14:03:10;15.10;;;10.23;;
27402;SDS011;14862;49.494;8.530;2024-01-30T14:05:36;18.20;;;10.23;;
27402;SDS011;14862;49.494;8.530;2024-01-30T14:08:01;15.35;;;9.63;;
27402;SDS011;14862;49.494;8.530;2024-01-30T14:10:26;19.08;;;11.48;;
27402;SDS011;14862;49.494;8.530;2024-01-30T14:12:51;15.23;;;9.73;;
27402;SDS011;14862;49.494;8.530;2024-01-30T14:15:17;16.15;;;10.35;;
27402;SDS011;14862;49.494;8.530;2024-01-30T14:17:43;15.85;;;10.13;;